sensor_id;sensor_type;location;lat;lon;timestamp;temperature;humidity
8313;DHT22;4194;43.408;24.626;2022-10-16T00:01:59;7.80;99.90
8313;DHT22;4194;43.408;24.626;2022-10-16T00:04:24;7.00;99.90
8313;DHT22;4194;43.408;24.626;2022-10-16T00:06:50;7.90;99.90
8313;DHT22;4194;43.408;24.626;2022-10-16T00:09:16;7.90;99.90
8313;DHT22;4194;43.408;24.626;2022-10-16T00:11:42;7.70;99.90
8313;DHT22;4194;43.408;24.626;2022-10-16T00:14:10;7.10;99.90
8313;DHT22;4194;43.408;24.626;2022-10-16T00:16:36;8.30;99.90
8313;DHT22;4194;43.408;24.626;2022-10-16T00:19:03;7.80;99.90
8313;DHT22;4194;43.408;24.626;2022-10-16T00:21:30;6.90;99.90
8313;DHT22;4194;43.408;24.626;2022-10-16T00:24:01;7.90;99.90
8313;DHT22;4194;43.408;24.626;2022-10-16T00:26:29;8.10;99.90
8313;DHT22;4194;43.408;24.626;2022-10-16T00:28:55;8.00;99.90
8313;DHT22;4194;43.408;24.626;2022-10-16T00:31:22;7.60;99.90
8313;DHT22;4194;43.408;24.626;2022-10-16T00:33:49;7.00;99.90
8313;DHT22;4194;43.408;24.626;2022-10-16T00:36:17;8.00;99.90
8313;DHT22;4194;43.408;24.626;2022-10-16T00:38:43;7.40;99.90
8313;DHT22;4194;43.408;24.626;2022-10-16T00:41:13;7.60;99.90
8313;DHT22;4194;43.408;24.626;2022-10-16T00:43:51;7.60;99.90
8313;DHT22;4194;43.408;24.626;2022-10-16T00:46:53;6.90;99.90
8313;DHT22;4194;43.408;24.626;2022-10-16T00:49:15;7.50;99.90
8313;DHT22;4194;43.408;24.626;2022-10-16T00:51:51;7.70;99.90
8313;DHT22;4194;43.408;24.626;2022-10-16T00:54:24;7.70;99.90
8313;DHT22;4194;43.408;24.626;2022-10-16T00:56:51;7.20;99.90
8313;DHT22;4194;43.408;24.626;2022-10-16T00:59:20;7.60;99.90
8313;DHT22;4194;43.408;24.626;2022-10-16T01:01:48;8.20;99.90
8313;DHT22;4194;43.408;24.626;2022-10-16T01:06:56;7.50;99.90
8313;DHT22;4194;43.408;24.626;2022-10-16T01:12:33;7.10;99.90
8313;DHT22;4194;43.408;24.626;2022-10-16T01:20:44;7.60;99.90
8313;DHT22;4194;43.408;24.626;2022-10-16T01:26:37;6.40;99.90
8313;DHT22;4194;43.408;24.626;2022-10-16T01:29:39;6.90;99.90
8313;DHT22;4194;43.408;24.626;2022-10-16T01:32:23;8.30;99.90
8313;DHT22;4194;43.408;24.626;2022-10-16T01:35:13;6.80;99.90
8313;DHT22;4194;43.408;24.626;2022-10-16T01:37:45;7.40;99.90
8313;DHT22;4194;43.408;24.626;2022-10-16T01:40:13;7.50;99.90
8313;DHT22;4194;43.408;24.626;2022-10-16T01:42:45;7.60;99.90
8313;DHT22;4194;43.408;24.626;2022-10-16T01:45:14;7.80;99.90
8313;DHT22;4194;43.408;24.626;2022-10-16T01:47:44;7.90;99.90
8313;DHT22;4194;43.408;24.626;2022-10-16T01:52:41;7.50;99.90
8313;DHT22;4194;43.408;24.626;2022-10-16T01:55:09;7.00;99.90
8313;DHT22;4194;43.408;24.626;2022-10-16T01:57:38;7.10;99.90
8313;DHT22;4194;43.408;24.626;2022-10-16T02:02:34;7.50;99.90
8313;DHT22;4194;43.408;24.626;2022-10-16T02:05:20;6.40;99.90
8313;DHT22;4194;43.408;24.626;2022-10-16T02:07:48;6.50;99.90
8313;DHT22;4194;43.408;24.626;2022-10-16T02:10:14;7.40;99.90
8313;DHT22;4194;43.408;24.626;2022-10-16T02:12:42;6.80;99.90
8313;DHT22;4194;43.408;24.626;2022-10-16T02:15:09;6.90;99.90
8313;DHT22;4194;43.408;24.626;2022-10-16T02:17:35;6.40;99.90
8313;DHT22;4194;43.408;24.626;2022-10-16T02:20:01;7.80;99.90
8313;DHT22;4194;43.408;24.626;2022-10-16T02:24:59;7.60;99.90
8313;DHT22;4194;43.408;24.626;2022-10-16T02:27:54;6.60;99.90
8313;DHT22;4194;43.408;24.626;2022-10-16T02:30:30;7.40;99.90
8313;DHT22;4194;43.408;24.626;2022-10-16T02:33:00;6.70;99.90
8313;DHT22;4194;43.408;24.626;2022-10-16T02:35:27;7.00;99.90
8313;DHT22;4194;43.408;24.626;2022-10-16T02:37:54;5.70;99.90
8313;DHT22;4194;43.408;24.626;2022-10-16T02:40:21;6.40;99.90
8313;DHT22;4194;43.408;24.626;2022-10-16T02:42:51;6.10;99.90
8313;DHT22;4194;43.408;24.626;2022-10-16T02:45:17;6.60;99.90
8313;DHT22;4194;43.408;24.626;2022-10-16T02:47:43;5.70;99.90
8313;DHT22;4194;43.408;24.626;2022-10-16T02:50:09;6.00;99.90
8313;DHT22;4194;43.408;24.626;2022-10-16T02:52:35;6.00;99.90
8313;DHT22;4194;43.408;24.626;2022-10-16T02:55:01;6.60;99.90
8313;DHT22;4194;43.408;24.626;2022-10-16T02:57:26;5.90;99.90
8313;DHT22;4194;43.408;24.626;2022-10-16T02:59:52;6.30;99.90
8313;DHT22;4194;43.408;24.626;2022-10-16T03:02:18;6.90;99.90
8313;DHT22;4194;43.408;24.626;2022-10-16T03:04:43;7.30;99.90
8313;DHT22;4194;43.408;24.626;2022-10-16T03:07:09;5.80;99.90
8313;DHT22;4194;43.408;24.626;2022-10-16T03:09:35;8.00;99.90
8313;DHT22;4194;43.408;24.626;2022-10-16T03:12:01;7.30;99.90
8313;DHT22;4194;43.408;24.626;2022-10-16T03:14:26;6.40;99.90
8313;DHT22;4194;43.408;24.626;2022-10-16T03:16:52;6.20;99.90
8313;DHT22;4194;43.408;24.626;2022-10-16T03:19:18;7.70;99.90
8313;DHT22;4194;43.408;24.626;2022-10-16T03:21:44;5.90;99.90
8313;DHT22;4194;43.408;24.626;2022-10-16T03:24:10;5.90;99.90
8313;DHT22;4194;43.408;24.626;2022-10-16T03:29:03;6.00;99.90
8313;DHT22;4194;43.408;24.626;2022-10-16T03:31:29;6.10;99.90
8313;DHT22;4194;43.408;24.626;2022-10-16T03:33:56;6.50;99.90
8313;DHT22;4194;43.408;24.626;2022-10-16T03:36:22;6.80;99.90
8313;DHT22;4194;43.408;24.626;2022-10-16T03:38:47;7.00;99.90
8313;DHT22;4194;43.408;24.626;2022-10-16T03:41:13;5.40;99.90
8313;DHT22;4194;43.408;24.626;2022-10-16T03:43:39;7.50;99.90
8313;DHT22;4194;43.408;24.626;2022-10-16T03:46:05;5.60;99.90
8313;DHT22;4194;43.408;24.626;2022-10-16T03:48:30;5.80;99.90
8313;DHT22;4194;43.408;24.626;2022-10-16T03:50:57;4.70;99.90
8313;DHT22;4194;43.408;24.626;2022-10-16T03:55:49;5.10;99.90
8313;DHT22;4194;43.408;24.626;2022-10-16T03:58:15;7.20;99.90
8313;DHT22;4194;43.408;24.626;2022-10-16T04:00:41;5.90;99.90
8313;DHT22;4194;43.408;24.626;2022-10-16T04:03:07;4.30;99.90
8313;DHT22;4194;43.408;24.626;2022-10-16T04:05:33;7.00;99.90
8313;DHT22;4194;43.408;24.626;2022-10-16T04:07:58;6.20;99.90
8313;DHT22;4194;43.408;24.626;2022-10-16T04:12:50;5.80;99.90
8313;DHT22;4194;43.408;24.626;2022-10-16T04:15:16;6.60;99.90
8313;DHT22;4194;43.408;24.626;2022-10-16T04:17:42;5.70;99.90
8313;DHT22;4194;43.408;24.626;2022-10-16T04:20:07;6.30;99.90
8313;DHT22;4194;43.408;24.626;2022-10-16T04:22:33;5.50;99.90
8313;DHT22;4194;43.408;24.626;2022-10-16T04:24:59;4.80;99.90
8313;DHT22;4194;43.408;24.626;2022-10-16T04:27:25;5.70;99.90
8313;DHT22;4194;43.408;24.626;2022-10-16T04:29:51;5.70;99.90
8313;DHT22;4194;43.408;24.626;2022-10-16T04:32:16;4.30;99.90
8313;DHT22;4194;43.408;24.626;2022-10-16T04:34:42;4.40;99.90
8313;DHT22;4194;43.408;24.626;2022-10-16T04:37:08;6.30;99.90
8313;DHT22;4194;43.408;24.626;2022-10-16T04:39:33;5.30;99.90
8313;DHT22;4194;43.408;24.626;2022-10-16T04:41:59;5.30;99.90
8313;DHT22;4194;43.408;24.626;2022-10-16T04:44:25;5.50;99.90
8313;DHT22;4194;43.408;24.626;2022-10-16T04:46:51;5.50;99.90
8313;DHT22;4194;43.408;24.626;2022-10-16T04:49:17;6.30;99.90
8313;DHT22;4194;43.408;24.626;2022-10-16T04:51:43;6.50;99.90
8313;DHT22;4194;43.408;24.626;2022-10-16T04:54:09;5.10;99.90
8313;DHT22;4194;43.408;24.626;2022-10-16T04:56:35;5.40;99.90
8313;DHT22;4194;43.408;24.626;2022-10-16T04:59:09;4.70;99.90
8313;DHT22;4194;43.408;24.626;2022-10-16T05:01:35;4.40;99.90
8313;DHT22;4194;43.408;24.626;2022-10-16T05:06:27;5.50;99.90
8313;DHT22;4194;43.408;24.626;2022-10-16T05:08:52;4.70;99.90
8313;DHT22;4194;43.408;24.626;2022-10-16T05:11:18;5.30;99.90
8313;DHT22;4194;43.408;24.626;2022-10-16T05:13:44;6.80;99.90
8313;DHT22;4194;43.408;24.626;2022-10-16T05:16:09;4.50;99.90
8313;DHT22;4194;43.408;24.626;2022-10-16T05:18:35;5.00;99.90
8313;DHT22;4194;43.408;24.626;2022-10-16T05:21:01;7.50;99.90
8313;DHT22;4194;43.408;24.626;2022-10-16T05:23:26;4.90;99.90
8313;DHT22;4194;43.408;24.626;2022-10-16T05:25:53;5.70;99.90
8313;DHT22;4194;43.408;24.626;2022-10-16T05:28:20;6.70;99.90
8313;DHT22;4194;43.408;24.626;2022-10-16T05:30:45;7.10;99.90
8313;DHT22;4194;43.408;24.626;2022-10-16T05:33:11;6.00;99.90
8313;DHT22;4194;43.408;24.626;2022-10-16T05:38:03;7.00;99.90
8313;DHT22;4194;43.408;24.626;2022-10-16T05:40:28;6.50;99.90
8313;DHT22;4194;43.408;24.626;2022-10-16T05:42:55;5.80;99.90
8313;DHT22;4194;43.408;24.626;2022-10-16T05:45:21;5.60;99.90
8313;DHT22;4194;43.408;24.626;2022-10-16T05:47:46;7.30;99.90
8313;DHT22;4194;43.408;24.626;2022-10-16T05:50:12;7.30;99.90
8313;DHT22;4194;43.408;24.626;2022-10-16T05:52:37;6.30;99.90
8313;DHT22;4194;43.408;24.626;2022-10-16T05:55:04;5.90;99.90
8313;DHT22;4194;43.408;24.626;2022-10-16T05:57:29;6.80;99.90
8313;DHT22;4194;43.408;24.626;2022-10-16T05:59:55;7.60;99.90
8313;DHT22;4194;43.408;24.626;2022-10-16T06:04:47;8.30;99.90
8313;DHT22;4194;43.408;24.626;2022-10-16T06:07:13;7.70;99.90
8313;DHT22;4194;43.408;24.626;2022-10-16T06:12:05;7.90;99.90
8313;DHT22;4194;43.408;24.626;2022-10-16T06:16:56;8.00;99.90
8313;DHT22;4194;43.408;24.626;2022-10-16T06:19:22;8.00;99.90
8313;DHT22;4194;43.408;24.626;2022-10-16T06:21:48;8.10;99.90
8313;DHT22;4194;43.408;24.626;2022-10-16T06:24:14;8.60;99.90
8313;DHT22;4194;43.408;24.626;2022-10-16T06:26:39;8.40;99.90
8313;DHT22;4194;43.408;24.626;2022-10-16T06:29:05;8.80;99.90
8313;DHT22;4194;43.408;24.626;2022-10-16T06:31:31;9.00;99.90
8313;DHT22;4194;43.408;24.626;2022-10-16T06:33:59;7.10;99.90
8313;DHT22;4194;43.408;24.626;2022-10-16T06:36:25;9.20;99.90
8313;DHT22;4194;43.408;24.626;2022-10-16T06:38:51;10.10;99.90
8313;DHT22;4194;43.408;24.626;2022-10-16T06:41:19;8.30;99.90
8313;DHT22;4194;43.408;24.626;2022-10-16T06:43:46;10.00;99.90
8313;DHT22;4194;43.408;24.626;2022-10-16T06:46:14;8.20;99.90
8313;DHT22;4194;43.408;24.626;2022-10-16T06:48:40;10.30;99.90
8313;DHT22;4194;43.408;24.626;2022-10-16T06:51:10;9.80;99.90
8313;DHT22;4194;43.408;24.626;2022-10-16T06:53:39;9.80;99.90
8313;DHT22;4194;43.408;24.626;2022-10-16T06:56:14;10.90;99.90
8313;DHT22;4194;43.408;24.626;2022-10-16T06:58:40;10.70;99.90
8313;DHT22;4194;43.408;24.626;2022-10-16T07:01:07;10.70;99.90
8313;DHT22;4194;43.408;24.626;2022-10-16T07:03:35;10.30;99.90
8313;DHT22;4194;43.408;24.626;2022-10-16T07:06:02;10.60;99.90
8313;DHT22;4194;43.408;24.626;2022-10-16T07:08:34;10.60;99.90
8313;DHT22;4194;43.408;24.626;2022-10-16T07:11:02;10.50;99.90
8313;DHT22;4194;43.408;24.626;2022-10-16T07:13:28;11.10;99.90
8313;DHT22;4194;43.408;24.626;2022-10-16T07:15:54;11.10;99.90
8313;DHT22;4194;43.408;24.626;2022-10-16T07:18:20;11.00;99.90
8313;DHT22;4194;43.408;24.626;2022-10-16T07:20:45;12.50;99.90
8313;DHT22;4194;43.408;24.626;2022-10-16T07:23:11;11.10;99.90
8313;DHT22;4194;43.408;24.626;2022-10-16T07:25:37;11.70;99.90
8313;DHT22;4194;43.408;24.626;2022-10-16T07:32:55;11.00;99.90
8313;DHT22;4194;43.408;24.626;2022-10-16T07:35:20;11.90;99.90
8313;DHT22;4194;43.408;24.626;2022-10-16T07:37:46;12.00;99.90
8313;DHT22;4194;43.408;24.626;2022-10-16T07:40:12;12.40;99.90
8313;DHT22;4194;43.408;24.626;2022-10-16T07:42:38;13.90;99.90
8313;DHT22;4194;43.408;24.626;2022-10-16T07:45:04;13.60;99.90
8313;DHT22;4194;43.408;24.626;2022-10-16T07:47:30;12.20;99.90
8313;DHT22;4194;43.408;24.626;2022-10-16T07:49:55;11.70;99.90
8313;DHT22;4194;43.408;24.626;2022-10-16T07:52:21;12.60;99.90
8313;DHT22;4194;43.408;24.626;2022-10-16T07:54:47;13.40;99.90
8313;DHT22;4194;43.408;24.626;2022-10-16T07:59:45;13.40;99.90
8313;DHT22;4194;43.408;24.626;2022-10-16T08:02:11;13.60;99.90
8313;DHT22;4194;43.408;24.626;2022-10-16T08:04:37;13.60;99.90
8313;DHT22;4194;43.408;24.626;2022-10-16T08:07:04;14.20;99.90
8313;DHT22;4194;43.408;24.626;2022-10-16T08:09:31;14.10;99.90
8313;DHT22;4194;43.408;24.626;2022-10-16T08:11:57;14.00;99.40
8313;DHT22;4194;43.408;24.626;2022-10-16T08:14:23;14.40;99.00
8313;DHT22;4194;43.408;24.626;2022-10-16T08:16:48;14.40;98.90
8313;DHT22;4194;43.408;24.626;2022-10-16T08:19:14;14.50;98.30
8313;DHT22;4194;43.408;24.626;2022-10-16T08:21:41;14.40;97.70
8313;DHT22;4194;43.408;24.626;2022-10-16T08:24:07;13.50;96.50
8313;DHT22;4194;43.408;24.626;2022-10-16T08:26:34;14.80;96.80
8313;DHT22;4194;43.408;24.626;2022-10-16T08:28:59;16.60;97.40
8313;DHT22;4194;43.408;24.626;2022-10-16T08:31:25;14.30;95.30
8313;DHT22;4194;43.408;24.626;2022-10-16T08:33:52;14.60;94.50
8313;DHT22;4194;43.408;24.626;2022-10-16T08:36:18;15.50;94.60
8313;DHT22;4194;43.408;24.626;2022-10-16T08:38:47;15.30;91.80
8313;DHT22;4194;43.408;24.626;2022-10-16T08:46:21;15.00;87.60
8313;DHT22;4194;43.408;24.626;2022-10-16T08:48:57;17.30;85.70
8313;DHT22;4194;43.408;24.626;2022-10-16T08:56:46;17.30;82.10
8313;DHT22;4194;43.408;24.626;2022-10-16T08:59:13;17.20;81.80
8313;DHT22;4194;43.408;24.626;2022-10-16T09:01:50;16.80;82.00
8313;DHT22;4194;43.408;24.626;2022-10-16T09:07:29;17.70;80.40
8313;DHT22;4194;43.408;24.626;2022-10-16T09:16:11;18.40;76.20
8313;DHT22;4194;43.408;24.626;2022-10-16T09:19:00;17.10;73.80
8313;DHT22;4194;43.408;24.626;2022-10-16T09:21:31;17.00;73.50
8313;DHT22;4194;43.408;24.626;2022-10-16T09:24:11;16.60;73.50
8313;DHT22;4194;43.408;24.626;2022-10-16T09:26:38;17.50;75.30
8313;DHT22;4194;43.408;24.626;2022-10-16T09:29:04;17.50;74.80
8313;DHT22;4194;43.408;24.626;2022-10-16T09:31:30;18.70;75.60
8313;DHT22;4194;43.408;24.626;2022-10-16T09:33:59;18.20;72.90
8313;DHT22;4194;43.408;24.626;2022-10-16T09:36:27;18.30;72.00
8313;DHT22;4194;43.408;24.626;2022-10-16T09:39:05;18.70;71.90
8313;DHT22;4194;43.408;24.626;2022-10-16T09:41:33;19.20;70.40
8313;DHT22;4194;43.408;24.626;2022-10-16T09:44:01;20.00;68.90
8313;DHT22;4194;43.408;24.626;2022-10-16T09:46:36;20.20;67.90
8313;DHT22;4194;43.408;24.626;2022-10-16T09:49:17;20.60;66.10
8313;DHT22;4194;43.408;24.626;2022-10-16T09:51:44;20.70;64.80
8313;DHT22;4194;43.408;24.626;2022-10-16T09:54:14;22.80;66.00
8313;DHT22;4194;43.408;24.626;2022-10-16T09:56:40;22.00;62.70
8313;DHT22;4194;43.408;24.626;2022-10-16T10:04:13;21.80;57.60
8313;DHT22;4194;43.408;24.626;2022-10-16T10:06:45;23.60;58.90
8313;DHT22;4194;43.408;24.626;2022-10-16T10:09:39;23.10;57.40
8313;DHT22;4194;43.408;24.626;2022-10-16T10:12:15;23.80;58.40
8313;DHT22;4194;43.408;24.626;2022-10-16T10:14:51;24.30;56.10
8313;DHT22;4194;43.408;24.626;2022-10-16T10:17:26;23.70;56.30
8313;DHT22;4194;43.408;24.626;2022-10-16T10:19:57;24.30;55.00
8313;DHT22;4194;43.408;24.626;2022-10-16T10:25:18;25.10;53.50
8313;DHT22;4194;43.408;24.626;2022-10-16T10:28:14;25.20;51.70
8313;DHT22;4194;43.408;24.626;2022-10-16T10:37:25;26.10;51.10
8313;DHT22;4194;43.408;24.626;2022-10-16T10:39:52;25.80;50.00
8313;DHT22;4194;43.408;24.626;2022-10-16T10:45:22;26.90;49.00
8313;DHT22;4194;43.408;24.626;2022-10-16T10:50:41;24.50;50.00
8313;DHT22;4194;43.408;24.626;2022-10-16T11:02:04;25.80;48.30
8313;DHT22;4194;43.408;24.626;2022-10-16T11:04:48;26.60;47.70
8313;DHT22;4194;43.408;24.626;2022-10-16T11:07:40;26.40;48.80
8313;DHT22;4194;43.408;24.626;2022-10-16T11:10:21;26.40;48.20
8313;DHT22;4194;43.408;24.626;2022-10-16T11:12:52;26.80;48.40
8313;DHT22;4194;43.408;24.626;2022-10-16T11:15:23;27.40;48.20
8313;DHT22;4194;43.408;24.626;2022-10-16T11:20:32;27.60;46.40
8313;DHT22;4194;43.408;24.626;2022-10-16T11:23:05;27.90;46.10
8313;DHT22;4194;43.408;24.626;2022-10-16T11:25:33;28.50;45.30
8313;DHT22;4194;43.408;24.626;2022-10-16T11:28:10;28.50;43.20
8313;DHT22;4194;43.408;24.626;2022-10-16T11:31:00;28.70;43.10
8313;DHT22;4194;43.408;24.626;2022-10-16T11:33:45;29.70;42.70
8313;DHT22;4194;43.408;24.626;2022-10-16T11:36:12;30.70;43.30
8313;DHT22;4194;43.408;24.626;2022-10-16T11:41:35;31.00;39.30
8313;DHT22;4194;43.408;24.626;2022-10-16T11:49:37;31.50;38.50
8313;DHT22;4194;43.408;24.626;2022-10-16T11:52:24;33.00;38.80
8313;DHT22;4194;43.408;24.626;2022-10-16T11:55:21;31.90;37.30
8313;DHT22;4194;43.408;24.626;2022-10-16T11:57:57;32.00;36.90
8313;DHT22;4194;43.408;24.626;2022-10-16T12:00:40;33.90;35.10
8313;DHT22;4194;43.408;24.626;2022-10-16T12:03:22;35.40;35.30
8313;DHT22;4194;43.408;24.626;2022-10-16T12:08:34;35.80;33.50
8313;DHT22;4194;43.408;24.626;2022-10-16T12:11:09;36.50;31.90
8313;DHT22;4194;43.408;24.626;2022-10-16T12:13:40;37.30;31.90
8313;DHT22;4194;43.408;24.626;2022-10-16T12:18:47;38.70;30.80
8313;DHT22;4194;43.408;24.626;2022-10-16T12:21:16;38.30;31.30
8313;DHT22;4194;43.408;24.626;2022-10-16T12:23:54;38.60;30.40
8313;DHT22;4194;43.408;24.626;2022-10-16T12:26:26;38.60;29.30
8313;DHT22;4194;43.408;24.626;2022-10-16T12:28:54;37.70;29.50
8313;DHT22;4194;43.408;24.626;2022-10-16T12:31:20;38.30;29.80
8313;DHT22;4194;43.408;24.626;2022-10-16T12:33:59;38.30;29.40
8313;DHT22;4194;43.408;24.626;2022-10-16T12:36:33;39.30;29.10
8313;DHT22;4194;43.408;24.626;2022-10-16T12:39:00;39.80;29.10
8313;DHT22;4194;43.408;24.626;2022-10-16T12:41:31;39.60;28.00
8313;DHT22;4194;43.408;24.626;2022-10-16T12:43:58;38.90;27.70
8313;DHT22;4194;43.408;24.626;2022-10-16T12:49:07;39.30;28.20
8313;DHT22;4194;43.408;24.626;2022-10-16T12:51:42;38.80;27.00
8313;DHT22;4194;43.408;24.626;2022-10-16T13:10:26;40.20;26.90
8313;DHT22;4194;43.408;24.626;2022-10-16T13:13:01;40.60;26.70
8313;DHT22;4194;43.408;24.626;2022-10-16T13:15:37;39.00;26.30
8313;DHT22;4194;43.408;24.626;2022-10-16T13:18:21;40.10;26.30
8313;DHT22;4194;43.408;24.626;2022-10-16T13:25:52;41.00;26.50
8313;DHT22;4194;43.408;24.626;2022-10-16T13:28:22;40.90;26.80
8313;DHT22;4194;43.408;24.626;2022-10-16T13:30:53;41.10;26.30
8313;DHT22;4194;43.408;24.626;2022-10-16T13:35:55;42.00;26.30
8313;DHT22;4194;43.408;24.626;2022-10-16T13:38:33;41.20;26.30
8313;DHT22;4194;43.408;24.626;2022-10-16T13:41:02;40.70;27.20
8313;DHT22;4194;43.408;24.626;2022-10-16T13:43:33;40.30;28.00
8313;DHT22;4194;43.408;24.626;2022-10-16T13:46:20;38.40;27.90
8313;DHT22;4194;43.408;24.626;2022-10-16T13:49:00;35.50;30.00
8313;DHT22;4194;43.408;24.626;2022-10-16T13:51:26;32.50;32.20
8313;DHT22;4194;43.408;24.626;2022-10-16T13:56:21;27.90;38.00
8313;DHT22;4194;43.408;24.626;2022-10-16T13:59:05;25.90;41.20
8313;DHT22;4194;43.408;24.626;2022-10-16T14:01:44;25.00;43.00
8313;DHT22;4194;43.408;24.626;2022-10-16T14:04:12;23.80;44.50
8313;DHT22;4194;43.408;24.626;2022-10-16T14:06:44;22.60;45.80
8313;DHT22;4194;43.408;24.626;2022-10-16T14:12:11;21.30;49.00
8313;DHT22;4194;43.408;24.626;2022-10-16T14:14:45;19.50;47.70
8313;DHT22;4194;43.408;24.626;2022-10-16T14:19:55;20.10;51.90
8313;DHT22;4194;43.408;24.626;2022-10-16T14:27:32;19.70;55.20
8313;DHT22;4194;43.408;24.626;2022-10-16T14:30:20;19.50;55.90
8313;DHT22;4194;43.408;24.626;2022-10-16T14:37:59;18.90;55.90
8313;DHT22;4194;43.408;24.626;2022-10-16T14:40:28;18.70;57.40
8313;DHT22;4194;43.408;24.626;2022-10-16T14:45:23;18.50;58.20
8313;DHT22;4194;43.408;24.626;2022-10-16T14:47:52;18.40;57.90
8313;DHT22;4194;43.408;24.626;2022-10-16T14:50:19;18.40;59.90
8313;DHT22;4194;43.408;24.626;2022-10-16T14:57:38;18.00;59.60
8313;DHT22;4194;43.408;24.626;2022-10-16T15:00:24;18.00;59.50
8313;DHT22;4194;43.408;24.626;2022-10-16T15:02:50;18.00;59.00
8313;DHT22;4194;43.408;24.626;2022-10-16T15:10:11;18.30;63.40
8313;DHT22;4194;43.408;24.626;2022-10-16T15:12:37;16.80;61.80
8313;DHT22;4194;43.408;24.626;2022-10-16T15:17:50;16.60;64.40
8313;DHT22;4194;43.408;24.626;2022-10-16T15:22:48;15.80;65.10
8313;DHT22;4194;43.408;24.626;2022-10-16T15:25:47;16.50;66.80
8313;DHT22;4194;43.408;24.626;2022-10-16T15:28:15;17.10;67.60
8313;DHT22;4194;43.408;24.626;2022-10-16T15:30:42;15.90;66.70
8313;DHT22;4194;43.408;24.626;2022-10-16T15:35:42;15.70;67.90
8313;DHT22;4194;43.408;24.626;2022-10-16T15:40:39;15.30;69.00
8313;DHT22;4194;43.408;24.626;2022-10-16T15:45:31;15.90;70.50
8313;DHT22;4194;43.408;24.626;2022-10-16T15:47:58;16.10;72.00
8313;DHT22;4194;43.408;24.626;2022-10-16T15:52:50;15.10;71.70
8313;DHT22;4194;43.408;24.626;2022-10-16T15:55:18;15.90;72.60
8313;DHT22;4194;43.408;24.626;2022-10-16T15:57:46;14.80;72.30
8313;DHT22;4194;43.408;24.626;2022-10-16T16:00:15;15.10;73.30
8313;DHT22;4194;43.408;24.626;2022-10-16T16:02:42;15.30;73.20
8313;DHT22;4194;43.408;24.626;2022-10-16T16:05:09;14.80;74.40
8313;DHT22;4194;43.408;24.626;2022-10-16T16:07:35;14.60;73.90
8313;DHT22;4194;43.408;24.626;2022-10-16T16:10:03;14.50;74.40
8313;DHT22;4194;43.408;24.626;2022-10-16T16:12:28;14.90;75.90
8313;DHT22;4194;43.408;24.626;2022-10-16T16:14:54;13.50;75.00
8313;DHT22;4194;43.408;24.626;2022-10-16T16:22:12;13.80;76.30
8313;DHT22;4194;43.408;24.626;2022-10-16T16:24:38;14.00;76.60
8313;DHT22;4194;43.408;24.626;2022-10-16T16:27:04;14.10;76.50
8313;DHT22;4194;43.408;24.626;2022-10-16T16:29:29;13.70;76.30
8313;DHT22;4194;43.408;24.626;2022-10-16T16:31:56;13.40;75.90
8313;DHT22;4194;43.408;24.626;2022-10-16T16:34:27;14.00;77.00
8313;DHT22;4194;43.408;24.626;2022-10-16T16:36:54;13.90;77.60
8313;DHT22;4194;43.408;24.626;2022-10-16T16:39:21;13.60;76.90
8313;DHT22;4194;43.408;24.626;2022-10-16T16:41:47;14.30;78.70
8313;DHT22;4194;43.408;24.626;2022-10-16T16:44:14;13.70;78.50
8313;DHT22;4194;43.408;24.626;2022-10-16T16:46:41;13.90;79.00
8313;DHT22;4194;43.408;24.626;2022-10-16T16:49:12;13.50;79.30
8313;DHT22;4194;43.408;24.626;2022-10-16T16:51:38;13.60;80.40
8313;DHT22;4194;43.408;24.626;2022-10-16T16:54:04;13.50;80.70
8313;DHT22;4194;43.408;24.626;2022-10-16T16:56:31;13.40;80.90
8313;DHT22;4194;43.408;24.626;2022-10-16T16:58:57;13.80;81.60
8313;DHT22;4194;43.408;24.626;2022-10-16T17:01:24;12.50;80.10
8313;DHT22;4194;43.408;24.626;2022-10-16T17:03:52;14.00;82.10
8313;DHT22;4194;43.408;24.626;2022-10-16T17:06:25;13.20;82.30
8313;DHT22;4194;43.408;24.626;2022-10-16T17:08:51;12.20;81.60
8313;DHT22;4194;43.408;24.626;2022-10-16T17:11:22;13.10;83.30
8313;DHT22;4194;43.408;24.626;2022-10-16T17:13:49;13.50;85.10
8313;DHT22;4194;43.408;24.626;2022-10-16T17:16:16;14.00;85.40
8313;DHT22;4194;43.408;24.626;2022-10-16T17:18:42;13.70;85.40
8313;DHT22;4194;43.408;24.626;2022-10-16T17:21:09;12.90;84.50
8313;DHT22;4194;43.408;24.626;2022-10-16T17:23:36;12.80;85.30
8313;DHT22;4194;43.408;24.626;2022-10-16T17:26:11;11.90;83.90
8313;DHT22;4194;43.408;24.626;2022-10-16T17:28:37;12.10;85.10
8313;DHT22;4194;43.408;24.626;2022-10-16T17:31:14;12.80;86.00
8313;DHT22;4194;43.408;24.626;2022-10-16T17:36:07;12.50;86.60
8313;DHT22;4194;43.408;24.626;2022-10-16T17:38:33;11.90;86.40
8313;DHT22;4194;43.408;24.626;2022-10-16T17:41:08;12.00;87.00
8313;DHT22;4194;43.408;24.626;2022-10-16T17:43:34;14.20;88.90
8313;DHT22;4194;43.408;24.626;2022-10-16T17:46:02;12.10;87.40
8313;DHT22;4194;43.408;24.626;2022-10-16T17:48:27;13.20;89.70
8313;DHT22;4194;43.408;24.626;2022-10-16T17:50:53;13.10;89.60
8313;DHT22;4194;43.408;24.626;2022-10-16T17:53:19;12.20;90.30
8313;DHT22;4194;43.408;24.626;2022-10-16T17:55:44;13.80;91.00
8313;DHT22;4194;43.408;24.626;2022-10-16T17:58:10;11.60;90.20
8313;DHT22;4194;43.408;24.626;2022-10-16T18:00:36;13.70;91.40
8313;DHT22;4194;43.408;24.626;2022-10-16T18:03:02;12.80;91.60
8313;DHT22;4194;43.408;24.626;2022-10-16T18:05:28;13.20;92.30
8313;DHT22;4194;43.408;24.626;2022-10-16T18:07:53;12.70;92.50
8313;DHT22;4194;43.408;24.626;2022-10-16T18:12:45;11.50;91.00
8313;DHT22;4194;43.408;24.626;2022-10-16T18:15:11;13.00;91.70
8313;DHT22;4194;43.408;24.626;2022-10-16T18:17:38;13.40;93.00
8313;DHT22;4194;43.408;24.626;2022-10-16T18:20:05;11.70;93.40
8313;DHT22;4194;43.408;24.626;2022-10-16T18:25:04;11.30;94.40
8313;DHT22;4194;43.408;24.626;2022-10-16T18:27:32;10.20;95.40
8313;DHT22;4194;43.408;24.626;2022-10-16T18:29:58;10.10;96.20
8313;DHT22;4194;43.408;24.626;2022-10-16T18:32:25;10.10;97.10
8313;DHT22;4194;43.408;24.626;2022-10-16T18:34:51;12.20;98.10
8313;DHT22;4194;43.408;24.626;2022-10-16T18:37:18;10.80;98.50
8313;DHT22;4194;43.408;24.626;2022-10-16T18:39:48;11.30;99.30
8313;DHT22;4194;43.408;24.626;2022-10-16T18:42:18;11.20;99.90
8313;DHT22;4194;43.408;24.626;2022-10-16T18:44:44;10.20;99.90
8313;DHT22;4194;43.408;24.626;2022-10-16T18:47:10;11.80;99.90
8313;DHT22;4194;43.408;24.626;2022-10-16T18:49:36;11.00;99.90
8313;DHT22;4194;43.408;24.626;2022-10-16T18:52:02;10.60;99.90
8313;DHT22;4194;43.408;24.626;2022-10-16T18:54:29;11.80;99.90
8313;DHT22;4194;43.408;24.626;2022-10-16T18:56:55;11.60;99.90
8313;DHT22;4194;43.408;24.626;2022-10-16T18:59:21;11.40;99.90
8313;DHT22;4194;43.408;24.626;2022-10-16T19:04:16;10.70;99.90
8313;DHT22;4194;43.408;24.626;2022-10-16T19:06:46;10.60;99.90
8313;DHT22;4194;43.408;24.626;2022-10-16T19:09:14;10.80;99.90
8313;DHT22;4194;43.408;24.626;2022-10-16T19:11:40;10.70;99.90
8313;DHT22;4194;43.408;24.626;2022-10-16T19:14:07;10.40;99.90
8313;DHT22;4194;43.408;24.626;2022-10-16T19:16:34;10.30;99.90
8313;DHT22;4194;43.408;24.626;2022-10-16T19:19:03;10.50;99.90
8313;DHT22;4194;43.408;24.626;2022-10-16T19:21:29;10.90;99.90
8313;DHT22;4194;43.408;24.626;2022-10-16T19:23:59;10.80;99.90
8313;DHT22;4194;43.408;24.626;2022-10-16T19:26:28;10.30;99.90